createdAt,value
2023-02-18T00:00:29.233Z,14.90
2023-02-18T00:02:56.297Z,14.90
2023-02-18T00:05:23.396Z,14.90
2023-02-18T00:07:50.530Z,14.90
2023-02-18T00:10:17.639Z,14.80
2023-02-18T00:12:44.360Z,14.80
2023-02-18T00:15:11.125Z,14.80
2023-02-18T00:17:38.121Z,14.80
2023-02-18T00:20:07.270Z,14.80
2023-02-18T00:22:34.092Z,14.80
2023-02-18T00:25:00.898Z,14.70
2023-02-18T00:27:27.717Z,14.70
2023-02-18T00:29:54.516Z,14.70
2023-02-18T00:32:21.408Z,14.70
2023-02-18T00:34:49.316Z,14.70
2023-02-18T00:37:16.178Z,14.60
2023-02-18T00:39:44.132Z,14.70
2023-02-18T00:42:11.054Z,14.70
2023-02-18T00:44:37.791Z,14.70
2023-02-18T00:47:04.587Z,14.60
2023-02-18T00:49:31.564Z,14.60
2023-02-18T00:51:58.359Z,14.50
2023-02-18T00:54:25.209Z,14.50
2023-02-18T00:56:52.036Z,14.40
2023-02-18T00:59:18.763Z,14.40
2023-02-18T01:01:45.535Z,14.40
2023-02-18T01:04:12.933Z,14.40
2023-02-18T01:06:39.988Z,14.40
2023-02-18T01:09:07.396Z,14.30
2023-02-18T01:11:34.323Z,14.20
2023-02-18T01:14:01.169Z,14.30
2023-02-18T01:16:29.664Z,14.20
2023-02-18T01:18:56.433Z,14.20
2023-02-18T01:21:23.270Z,14.30
2023-02-18T01:23:50.069Z,14.20
2023-02-18T01:26:16.897Z,14.20
2023-02-18T01:28:43.649Z,14.20
2023-02-18T01:31:13.874Z,14.20
2023-02-18T01:33:41.162Z,14.10
2023-02-18T01:36:09.671Z,14.20
2023-02-18T01:38:37.008Z,14.10
2023-02-18T01:41:04.365Z,14.00
2023-02-18T01:43:31.704Z,14.00
2023-02-18T01:46:04.507Z,14.00
2023-02-18T01:48:49.456Z,14.00
2023-02-18T01:51:26.528Z,13.90
2023-02-18T01:54:05.074Z,14.00
2023-02-18T01:56:51.215Z,13.90
2023-02-18T01:59:25.121Z,14.00
2023-02-18T02:01:52.326Z,14.00
2023-02-18T02:04:19.614Z,14.10
2023-02-18T02:06:46.351Z,14.00
2023-02-18T02:09:17.835Z,14.00
2023-02-18T02:11:59.263Z,14.00
2023-02-18T02:14:43.994Z,14.00
2023-02-18T02:17:24.216Z,14.00
2023-02-18T02:20:24.900Z,14.00
2023-02-18T02:23:28.558Z,14.10
2023-02-18T02:26:54.786Z,14.20
2023-02-18T02:29:21.482Z,14.20
2023-02-18T02:31:56.462Z,14.20
2023-02-18T02:34:47.278Z,14.20
2023-02-18T02:37:25.406Z,14.20
2023-02-18T02:40:03.265Z,14.20
2023-02-18T02:42:58.253Z,14.20
2023-02-18T02:45:37.786Z,14.30
2023-02-18T02:48:32.052Z,14.20
2023-02-18T02:51:01.484Z,14.30
2023-02-18T02:53:31.426Z,14.30
2023-02-18T02:55:58.284Z,14.20
2023-02-18T02:58:25.878Z,14.20
2023-02-18T03:01:17.673Z,14.20
2023-02-18T03:04:03.607Z,14.20
2023-02-18T03:07:06.774Z,14.20
2023-02-18T03:10:21.432Z,14.20
2023-02-18T03:13:03.256Z,14.30
2023-02-18T03:15:54.909Z,14.30
2023-02-18T03:18:41.160Z,14.40
2023-02-18T03:21:25.358Z,14.30
2023-02-18T03:24:01.374Z,14.30
2023-02-18T03:26:30.271Z,14.30
2023-02-18T03:29:02.862Z,14.30
2023-02-18T03:31:31.848Z,14.30
2023-02-18T03:34:07.790Z,14.30
2023-02-18T03:36:37.162Z,14.30
2023-02-18T03:39:08.810Z,14.30
2023-02-18T03:41:36.190Z,14.20
2023-02-18T03:44:07.114Z,14.30
2023-02-18T03:46:35.392Z,14.30
2023-02-18T03:49:03.065Z,14.30
2023-02-18T03:51:30.123Z,14.30
2023-02-18T03:53:56.936Z,14.40
2023-02-18T03:56:24.431Z,14.40
2023-02-18T03:58:51.248Z,14.30
2023-02-18T04:01:18.244Z,14.30
2023-02-18T04:03:45.001Z,14.30
2023-02-18T04:06:12.259Z,14.30
2023-02-18T04:08:39.037Z,14.20
2023-02-18T04:11:06.000Z,14.20
2023-02-18T04:13:33.023Z,14.20
2023-02-18T04:16:00.042Z,14.20
2023-02-18T04:18:26.857Z,14.20
2023-02-18T04:20:53.657Z,14.20
2023-02-18T04:23:20.401Z,14.10
2023-02-18T04:25:47.222Z,14.10
2023-02-18T04:28:15.529Z,14.10
2023-02-18T04:30:43.488Z,14.00
2023-02-18T04:33:10.970Z,14.00
2023-02-18T04:35:41.896Z,14.00
2023-02-18T04:38:10.368Z,14.00
2023-02-18T04:40:37.515Z,14.00
2023-02-18T04:43:04.312Z,13.90
2023-02-18T04:45:31.058Z,14.00
2023-02-18T04:47:57.922Z,13.90
2023-02-18T04:50:24.664Z,13.90
2023-02-18T04:52:51.425Z,13.90
2023-02-18T04:55:18.240Z,13.90
2023-02-18T04:57:44.984Z,13.90
2023-02-18T05:00:15.646Z,13.90
2023-02-18T05:02:42.705Z,13.80
2023-02-18T05:05:09.506Z,13.80
2023-02-18T05:07:36.432Z,13.80
2023-02-18T05:10:03.842Z,13.80
2023-02-18T05:12:30.598Z,13.70
2023-02-18T05:14:57.296Z,13.70
2023-02-18T05:17:24.092Z,13.70
2023-02-18T05:19:50.808Z,13.80
2023-02-18T05:22:17.519Z,13.80
2023-02-18T05:24:44.257Z,13.70
2023-02-18T05:27:10.991Z,13.80
2023-02-18T05:29:37.788Z,13.70
2023-02-18T05:32:04.684Z,13.70
2023-02-18T05:34:31.473Z,13.70
2023-02-18T05:36:58.176Z,13.70
2023-02-18T05:39:24.927Z,13.70
2023-02-18T05:41:51.643Z,13.60
2023-02-18T05:44:30.451Z,13.60
2023-02-18T05:47:06.713Z,13.70
2023-02-18T05:49:34.936Z,13.70
2023-02-18T05:52:02.245Z,13.70
2023-02-18T05:54:29.135Z,13.70
2023-02-18T05:56:55.916Z,13.70
2023-02-18T05:59:23.227Z,13.70
2023-02-18T06:01:50.388Z,13.70
2023-02-18T06:04:17.486Z,13.70
2023-02-18T06:06:44.825Z,13.70
2023-02-18T06:09:11.749Z,13.70
2023-02-18T06:11:38.650Z,13.50
2023-02-18T06:14:05.664Z,13.70
2023-02-18T06:16:33.101Z,13.70
2023-02-18T06:19:00.012Z,13.70
2023-02-18T06:21:26.969Z,13.70
2023-02-18T06:23:53.698Z,13.70
2023-02-18T06:26:20.485Z,13.80
2023-02-18T06:28:47.273Z,13.80
2023-02-18T06:31:14.425Z,13.80
2023-02-18T06:33:41.270Z,13.80
2023-02-18T06:36:13.851Z,13.70
2023-02-18T06:38:42.911Z,13.70
2023-02-18T06:41:10.658Z,13.70
2023-02-18T06:43:37.902Z,13.70
2023-02-18T06:46:05.293Z,13.70
2023-02-18T06:48:32.687Z,13.60
2023-02-18T06:50:59.837Z,13.60
2023-02-18T06:53:26.589Z,13.60
2023-02-18T06:55:53.342Z,13.60
2023-02-18T06:58:20.242Z,13.70
2023-02-18T07:00:46.983Z,13.70
2023-02-18T07:03:14.897Z,13.70
2023-02-18T07:05:42.168Z,13.70
2023-02-18T07:08:09.601Z,13.60
2023-02-18T07:10:36.579Z,13.60
2023-02-18T07:13:03.645Z,13.60
2023-02-18T07:15:30.549Z,13.60
2023-02-18T07:17:57.287Z,13.70
2023-02-18T07:20:24.582Z,13.60
2023-02-18T07:22:51.872Z,13.60
2023-02-18T07:25:18.982Z,13.70
2023-02-18T07:27:45.813Z,13.60
2023-02-18T07:30:13.180Z,13.60
2023-02-18T07:32:40.208Z,13.60
2023-02-18T07:35:07.449Z,13.60
2023-02-18T07:37:34.172Z,13.60
2023-02-18T07:40:00.964Z,13.60
2023-02-18T07:42:27.803Z,13.60
2023-02-18T07:44:54.513Z,13.60
2023-02-18T07:47:21.309Z,13.60
2023-02-18T07:49:48.149Z,13.60
2023-02-18T07:52:15.846Z,13.70
2023-02-18T07:54:42.793Z,13.70
2023-02-18T07:57:09.780Z,13.70
2023-02-18T07:59:36.568Z,13.70
2023-02-18T08:02:05.491Z,13.70
2023-02-18T08:04:32.425Z,13.70
2023-02-18T08:06:59.238Z,13.70
2023-02-18T08:09:25.991Z,13.70
2023-02-18T08:11:52.746Z,13.70
2023-02-18T08:14:19.481Z,13.70
2023-02-18T08:16:46.280Z,13.60
2023-02-18T08:19:13.042Z,13.60
2023-02-18T08:21:39.772Z,13.50
2023-02-18T08:24:08.032Z,13.60
2023-02-18T08:26:35.086Z,13.50
2023-02-18T08:29:01.981Z,13.60
2023-02-18T08:31:30.562Z,13.50
2023-02-18T08:33:59.000Z,13.50
2023-02-18T08:36:26.094Z,13.50
2023-02-18T08:38:53.297Z,13.50
2023-02-18T08:41:20.081Z,13.40
2023-02-18T08:43:47.937Z,13.40
2023-02-18T08:46:24.954Z,13.30
2023-02-18T08:49:00.325Z,13.40
2023-02-18T08:51:28.350Z,13.30
2023-02-18T08:53:55.113Z,13.20
2023-02-18T08:56:21.860Z,13.20
2023-02-18T08:58:48.633Z,13.20
2023-02-18T09:01:15.453Z,13.20
2023-02-18T09:03:42.407Z,13.10
2023-02-18T09:06:09.446Z,13.10
2023-02-18T09:08:36.617Z,13.20
2023-02-18T09:11:08.067Z,13.20
2023-02-18T09:13:35.220Z,13.20
2023-02-18T09:16:08.507Z,13.20
2023-02-18T09:18:35.980Z,13.20
2023-02-18T09:21:04.540Z,13.20
2023-02-18T09:23:32.212Z,13.20
2023-02-18T09:25:59.426Z,13.20
2023-02-18T09:28:26.445Z,13.20
2023-02-18T09:30:53.466Z,13.30
2023-02-18T09:33:20.447Z,13.20
2023-02-18T09:35:47.680Z,13.20
2023-02-18T09:38:16.965Z,13.20
2023-02-18T09:40:47.284Z,13.20
2023-02-18T09:43:41.625Z,13.20
2023-02-18T09:46:28.581Z,13.20
2023-02-18T09:48:56.111Z,13.30
2023-02-18T09:51:22.964Z,13.30
2023-02-18T09:53:49.909Z,13.30
2023-02-18T09:56:23.119Z,13.30
2023-02-18T09:58:51.678Z,13.20
2023-02-18T10:01:39.133Z,13.30
2023-02-18T10:04:24.034Z,13.30
2023-02-18T10:06:53.305Z,13.40
2023-02-18T10:09:33.610Z,13.50
2023-02-18T10:12:14.268Z,13.50
2023-02-18T10:14:49.804Z,13.60
2023-02-18T10:17:18.113Z,13.70
2023-02-18T10:19:47.717Z,13.70
2023-02-18T10:22:16.049Z,13.80
2023-02-18T10:24:48.617Z,13.90
2023-02-18T10:27:41.806Z,14.00
2023-02-18T10:30:30.624Z,14.00
2023-02-18T10:33:12.743Z,14.10
2023-02-18T10:35:53.670Z,14.00
2023-02-18T10:38:41.680Z,13.90
2023-02-18T10:41:45.338Z,14.00
2023-02-18T10:44:23.912Z,14.00
2023-02-18T10:47:13.389Z,14.00
2023-02-18T10:50:02.294Z,14.10
2023-02-18T10:52:38.055Z,14.20
2023-02-18T10:55:11.232Z,14.30
2023-02-18T10:57:50.768Z,14.30
2023-02-18T11:00:18.034Z,14.50
2023-02-18T11:02:45.956Z,14.60
2023-02-18T11:05:24.575Z,14.70
2023-02-18T11:07:53.909Z,14.60
2023-02-18T11:10:32.356Z,14.60
2023-02-18T11:13:29.126Z,14.60
2023-02-18T11:16:00.662Z,14.60
2023-02-18T11:18:46.678Z,14.70
2023-02-18T11:21:13.462Z,14.70
2023-02-18T11:23:52.387Z,14.90
2023-02-18T11:26:32.170Z,15.00
2023-02-18T11:29:20.388Z,15.10
2023-02-18T11:31:50.017Z,15.10
2023-02-18T11:34:23.897Z,15.10
2023-02-18T11:36:52.193Z,15.10
2023-02-18T11:39:26.504Z,15.10
2023-02-18T11:41:57.428Z,15.10
2023-02-18T11:44:32.416Z,15.10
2023-02-18T11:47:07.134Z,15.10
2023-02-18T11:49:35.693Z,15.00
2023-02-18T11:52:19.333Z,15.00
2023-02-18T11:55:08.348Z,15.00
2023-02-18T11:57:39.873Z,15.00
2023-02-18T12:00:21.559Z,15.10
2023-02-18T12:02:49.562Z,15.40
2023-02-18T12:05:28.714Z,15.40
2023-02-18T12:08:20.583Z,15.40
2023-02-18T12:10:54.791Z,15.50
2023-02-18T12:13:37.200Z,15.70
2023-02-18T12:16:11.138Z,15.80
2023-02-18T12:18:49.961Z,15.80
2023-02-18T12:21:47.751Z,15.90
2023-02-18T12:24:49.785Z,15.80
2023-02-18T12:27:28.096Z,15.60
2023-02-18T12:30:19.007Z,15.60
2023-02-18T12:33:16.515Z,15.50
2023-02-18T12:36:19.406Z,15.50
2023-02-18T12:39:07.436Z,15.50
2023-02-18T12:42:10.224Z,15.60
2023-02-18T12:44:52.211Z,15.80
2023-02-18T12:47:28.404Z,16.00
2023-02-18T12:50:03.494Z,15.90
2023-02-18T12:52:56.178Z,16.20
2023-02-18T12:55:56.377Z,16.30
2023-02-18T12:58:48.091Z,16.30
2023-02-18T13:01:22.856Z,16.40
2023-02-18T13:04:04.802Z,16.40
2023-02-18T13:06:42.866Z,16.40
2023-02-18T13:09:28.543Z,16.40
2023-02-18T13:12:07.088Z,16.40
2023-02-18T13:15:00.159Z,16.40
2023-02-18T13:17:32.820Z,16.40
2023-02-18T13:20:26.251Z,16.30
2023-02-18T13:22:53.643Z,16.20
2023-02-18T13:25:21.993Z,16.30
2023-02-18T13:28:01.076Z,16.30
2023-02-18T13:30:52.593Z,16.20
2023-02-18T13:33:57.184Z,16.20
2023-02-18T13:36:43.920Z,16.10
2023-02-18T13:39:19.995Z,16.10
2023-02-18T13:41:49.209Z,16.10
2023-02-18T13:44:22.169Z,16.20
2023-02-18T13:46:54.069Z,16.20
2023-02-18T13:49:36.137Z,16.10
2023-02-18T13:52:04.008Z,16.10
2023-02-18T13:54:46.970Z,16.10
2023-02-18T13:57:26.904Z,16.00
2023-02-18T14:00:02.728Z,16.00
2023-02-18T14:02:34.875Z,16.00
2023-02-18T14:05:20.576Z,16.00
2023-02-18T14:08:13.685Z,16.00
2023-02-18T14:10:41.057Z,16.10
2023-02-18T14:13:37.877Z,16.30
2023-02-18T14:16:04.734Z,16.30
2023-02-18T14:18:56.050Z,16.40
2023-02-18T14:21:36.948Z,16.40
2023-02-18T14:24:07.142Z,16.40
2023-02-18T14:26:46.138Z,16.40
2023-02-18T14:29:27.776Z,16.40
2023-02-18T14:32:00.269Z,16.40
2023-02-18T14:34:41.934Z,16.50
2023-02-18T14:37:28.148Z,16.60
2023-02-18T14:40:22.907Z,16.70
2023-02-18T14:43:44.848Z,16.70
2023-02-18T14:46:25.717Z,16.70
2023-02-18T14:49:28.187Z,16.60
2023-02-18T14:51:57.090Z,16.60
2023-02-18T14:54:25.902Z,16.70
2023-02-18T14:57:11.237Z,16.80
2023-02-18T14:59:41.430Z,16.80
2023-02-18T15:02:24.004Z,16.80
2023-02-18T15:04:50.824Z,16.70
2023-02-18T15:07:22.285Z,16.60
2023-02-18T15:09:53.509Z,16.60
2023-02-18T15:12:25.609Z,16.50
2023-02-18T15:14:54.517Z,16.50
2023-02-18T15:17:27.259Z,16.30
2023-02-18T15:19:57.024Z,16.40
2023-02-18T15:22:30.903Z,16.30
2023-02-18T15:24:58.268Z,16.40
2023-02-18T15:27:28.782Z,16.40
2023-02-18T15:30:18.948Z,16.40
2023-02-18T15:32:56.389Z,16.30
2023-02-18T15:35:29.660Z,16.30
2023-02-18T15:37:58.610Z,16.30
2023-02-18T15:40:32.098Z,16.30
2023-02-18T15:43:04.427Z,16.20
2023-02-18T15:45:31.210Z,16.10
2023-02-18T15:47:59.573Z,15.90
2023-02-18T15:50:29.473Z,15.90
2023-02-18T15:52:59.856Z,15.80
2023-02-18T15:55:32.255Z,15.80
2023-02-18T15:58:05.365Z,15.80
2023-02-18T16:00:39.309Z,15.70
2023-02-18T16:03:20.604Z,15.70
2023-02-18T16:05:47.549Z,15.70
2023-02-18T16:08:24.643Z,15.60
2023-02-18T16:11:08.869Z,15.50
2023-02-18T16:13:38.242Z,15.50
2023-02-18T16:16:05.773Z,15.60
2023-02-18T16:18:41.335Z,15.60
2023-02-18T16:21:17.386Z,15.60
2023-02-18T16:24:24.342Z,15.60
2023-02-18T16:26:53.849Z,15.50
2023-02-18T16:29:37.090Z,15.50
2023-02-18T16:32:04.008Z,15.40
2023-02-18T16:34:30.792Z,15.40
2023-02-18T16:37:15.980Z,15.40
2023-02-18T16:39:43.022Z,15.40
2023-02-18T16:42:11.396Z,15.40
2023-02-18T16:44:38.839Z,15.30
2023-02-18T16:47:06.661Z,15.40
2023-02-18T16:49:34.879Z,15.30
2023-02-18T16:52:06.706Z,15.30
2023-02-18T16:54:34.519Z,15.40
2023-02-18T16:57:01.349Z,15.40
2023-02-18T16:59:28.063Z,15.30
2023-02-18T17:01:56.018Z,15.30
2023-02-18T17:04:23.541Z,15.20
2023-02-18T17:06:50.350Z,15.30
2023-02-18T17:09:22.853Z,15.10
2023-02-18T17:11:51.848Z,15.10
2023-02-18T17:14:20.695Z,15.20
2023-02-18T17:16:50.004Z,15.20
2023-02-18T17:19:17.281Z,15.30
2023-02-18T17:21:45.990Z,15.30
2023-02-18T17:24:15.561Z,15.20
2023-02-18T17:26:43.169Z,15.20
2023-02-18T17:29:09.923Z,15.30
2023-02-18T17:31:39.770Z,15.20
2023-02-18T17:34:08.567Z,15.30
2023-02-18T17:36:35.408Z,15.30
2023-02-18T17:39:02.828Z,15.30
2023-02-18T17:41:29.799Z,15.30
2023-02-18T17:43:56.801Z,15.30
2023-02-18T17:46:23.599Z,15.30
2023-02-18T17:48:50.372Z,15.40
2023-02-18T17:51:26.207Z,15.30
2023-02-18T17:53:53.472Z,15.40
2023-02-18T17:56:20.421Z,15.40
2023-02-18T17:58:48.815Z,15.40
2023-02-18T18:01:18.451Z,15.30
2023-02-18T18:03:47.304Z,15.30
2023-02-18T18:06:18.110Z,15.30
2023-02-18T18:08:45.088Z,15.30
2023-02-18T18:11:19.164Z,15.20
2023-02-18T18:13:46.472Z,15.20
2023-02-18T18:16:15.428Z,15.20
2023-02-18T18:18:42.378Z,15.10
2023-02-18T18:21:32.170Z,15.10
2023-02-18T18:23:58.898Z,15.00
2023-02-18T18:26:25.666Z,15.00
2023-02-18T18:28:53.459Z,14.80
2023-02-18T18:31:20.983Z,14.70
2023-02-18T18:33:51.413Z,14.50
2023-02-18T18:36:20.048Z,14.40
2023-02-18T18:38:47.595Z,14.40
2023-02-18T18:41:17.047Z,14.50
2023-02-18T18:43:43.864Z,14.40
2023-02-18T18:46:10.936Z,14.30
2023-02-18T18:48:38.132Z,14.40
2023-02-18T18:51:05.357Z,14.40
2023-02-18T18:53:34.484Z,14.40
2023-02-18T18:56:04.443Z,14.40
2023-02-18T18:58:31.617Z,14.40
2023-02-18T19:01:01.777Z,14.30
2023-02-18T19:03:30.125Z,14.30
2023-02-18T19:05:57.711Z,14.40
2023-02-18T19:08:24.815Z,14.40
2023-02-18T19:10:54.225Z,14.50
2023-02-18T19:13:23.921Z,14.40
2023-02-18T19:15:53.493Z,14.40
2023-02-18T19:18:21.772Z,14.40
2023-02-18T19:20:48.786Z,14.50
2023-02-18T19:23:15.715Z,14.40
2023-02-18T19:25:42.924Z,14.50
2023-02-18T19:28:13.875Z,14.40
2023-02-18T19:30:42.239Z,14.40
2023-02-18T19:33:12.489Z,14.40
2023-02-18T19:35:40.895Z,14.40
2023-02-18T19:38:12.074Z,14.50
2023-02-18T19:40:39.992Z,14.40
2023-02-18T19:43:07.663Z,14.40
2023-02-18T19:45:41.185Z,14.50
2023-02-18T19:48:10.884Z,14.40
2023-02-18T19:50:37.724Z,14.40
2023-02-18T19:53:04.656Z,14.30
2023-02-18T19:55:31.566Z,14.30
2023-02-18T19:57:58.304Z,14.30
2023-02-18T20:00:25.133Z,14.20
2023-02-18T20:02:52.118Z,14.30
2023-02-18T20:05:19.333Z,14.30
2023-02-18T20:07:46.749Z,14.30
2023-02-18T20:10:16.523Z,14.30
2023-02-18T20:12:43.581Z,14.30
2023-02-18T20:15:10.730Z,14.20
2023-02-18T20:17:39.233Z,14.20
2023-02-18T20:20:07.254Z,14.20
2023-02-18T20:22:34.473Z,14.20
2023-02-18T20:25:01.231Z,14.20
2023-02-18T20:27:28.055Z,14.30
2023-02-18T20:29:54.809Z,14.20
2023-02-18T20:32:21.923Z,14.30
2023-02-18T20:34:48.787Z,14.20
2023-02-18T20:37:15.514Z,14.20
2023-02-18T20:39:42.385Z,14.30
2023-02-18T20:42:16.360Z,14.20
2023-02-18T20:44:44.752Z,14.30
2023-02-18T20:47:13.487Z,14.30
2023-02-18T20:49:40.981Z,14.30
2023-02-18T20:52:09.363Z,14.30
2023-02-18T20:54:36.174Z,14.30
2023-02-18T20:57:03.101Z,14.30
2023-02-18T20:59:30.266Z,14.20
2023-02-18T21:01:57.175Z,14.20
2023-02-18T21:04:24.065Z,14.10
2023-02-18T21:06:50.882Z,14.10
2023-02-18T21:09:18.553Z,14.10
2023-02-18T21:11:45.974Z,14.10
2023-02-18T21:14:12.880Z,14.10
2023-02-18T21:16:39.954Z,14.00
2023-02-18T21:19:08.477Z,14.00
2023-02-18T21:21:35.704Z,14.00
2023-02-18T21:24:02.733Z,13.90
2023-02-18T21:26:29.754Z,13.90
2023-02-18T21:28:59.531Z,14.00
2023-02-18T21:31:29.786Z,13.90
2023-02-18T21:33:57.135Z,14.00
2023-02-18T21:36:24.965Z,14.00
2023-02-18T21:38:56.688Z,13.90
2023-02-18T21:41:24.526Z,13.80
2023-02-18T21:43:51.779Z,13.80
2023-02-18T21:46:23.968Z,13.80
2023-02-18T21:49:06.913Z,13.90
2023-02-18T21:52:00.508Z,13.90
2023-02-18T21:54:36.876Z,13.80
2023-02-18T21:57:05.240Z,13.80
2023-02-18T21:59:33.499Z,13.80
2023-02-18T22:02:01.474Z,13.80
2023-02-18T22:04:31.096Z,13.80
2023-02-18T22:06:58.415Z,13.80
2023-02-18T22:09:25.190Z,13.90
2023-02-18T22:11:51.954Z,13.90
2023-02-18T22:14:18.922Z,13.80
2023-02-18T22:16:45.807Z,13.90
2023-02-18T22:19:14.122Z,13.80
2023-02-18T22:21:42.022Z,13.90
2023-02-18T22:24:09.029Z,13.80
2023-02-18T22:26:35.767Z,13.80
2023-02-18T22:29:02.944Z,13.80
2023-02-18T22:31:30.763Z,13.80
2023-02-18T22:33:59.060Z,13.80
2023-02-18T22:36:27.593Z,13.80
2023-02-18T22:38:54.498Z,13.80
2023-02-18T22:41:23.534Z,13.80
2023-02-18T22:44:04.725Z,13.80
2023-02-18T22:46:33.236Z,13.80
2023-02-18T22:49:02.364Z,13.80
2023-02-18T22:51:32.171Z,13.80
2023-02-18T22:54:00.672Z,13.90
2023-02-18T22:56:29.040Z,13.90
2023-02-18T22:58:56.757Z,13.80
2023-02-18T23:01:32.671Z,13.80
2023-02-18T23:04:04.788Z,13.80
2023-02-18T23:06:31.612Z,13.80
2023-02-18T23:08:58.473Z,13.90
2023-02-18T23:11:25.557Z,13.90
2023-02-18T23:14:13.898Z,13.90
2023-02-18T23:16:59.593Z,13.80
2023-02-18T23:19:27.895Z,13.80
2023-02-18T23:21:54.814Z,13.90
2023-02-18T23:24:21.913Z,13.90
2023-02-18T23:26:48.966Z,13.90
2023-02-18T23:29:16.434Z,13.90
2023-02-18T23:31:43.578Z,13.80
2023-02-18T23:34:15.602Z,13.90
2023-02-18T23:36:43.135Z,13.90
2023-02-18T23:39:12.649Z,13.90
2023-02-18T23:41:39.578Z,13.90
2023-02-18T23:44:08.551Z,13.80
2023-02-18T23:46:37.147Z,13.80
2023-02-18T23:49:05.115Z,13.90
2023-02-18T23:51:32.079Z,13.90
2023-02-18T23:54:01.592Z,13.90
2023-02-18T23:56:28.533Z,13.90
2023-02-18T23:59:00.310Z,13.80
